Time;durP1;ratioP1;P1;durP2;ratioP2;P2;SDS_P1;SDS_P2;PMS_P1;PMS_P2;Temp;Humidity;BMP_temperature;BMP_pressure;BME280_temperature;BME280_humidity;BME280_pressure;Samples;Min_cycle;Max_cycle;Signal;HPM_P1;HPM_P2
2021/09/12 00:01:25;;;;;;;;;;;;;;;;;;4978069;28;20008;-81
2021/09/12 00:03:50;;;;;;;;;;;;;;;;;;5010042;28;19921;-81
2021/09/12 00:06:15;;;;;;;;;;;;;;;;;;5023589;28;20008;-81
2021/09/12 00:08:41;;;;;;;;;;;;;;;;;;4990824;28;19939;-81
2021/09/12 00:11:06;;;;;;;;;;;;;;;;;;4991307;28;19921;-81
2021/09/12 00:13:31;;;;;;;;;;;;;;;;;;5007565;28;19918;-81
2021/09/12 00:15:57;;;;;;;;;;;;;;;;;;5019120;28;19932;-81
2021/09/12 00:18:22;;;;;;;;;;;;;;;;;;5019270;28;19917;-81
2021/09/12 00:20:47;;;;;;;;;;;;;;;;;;5007183;28;19928;-81
2021/09/12 00:23:13;;;;;;;;;;;;;;;;;;5007659;28;19918;-81
2021/09/12 00:25:38;;;;;;;;;;;;;;;;;;5007209;28;19975;-81
2021/09/12 00:28:03;;;;;;;;;;;;;;;;;;5026025;28;19917;-80
2021/09/12 00:30:29;;;;;;;;;;;;;;;;;;5027034;28;19940;-81
2021/09/12 00:32:54;;;;;;;;;;;;;;;;;;5026481;28;19925;-80
2021/09/12 00:35:19;;;;;;;;;;;;;;;;;;5013231;28;19921;-80
2021/09/12 00:37:47;;;;;;;;;;;;;;;;;;5007005;28;19921;-80
2021/09/12 00:40:12;;;;;;;;;;;;;;;;;;5006965;28;19917;-81
2021/09/12 00:42:38;;;;;;;;;;;;;;;;;;5012212;28;19971;-81
2021/09/12 00:45:03;;;;;;;;;;;;;;;;;;5026795;28;20366;-80
2021/09/12 00:47:29;;;;;;;;;;;;;;;;;;5024148;28;19921;-81
2021/09/12 00:49:54;;;;;;;;;;;;;;;;;;4994387;28;19921;-81
2021/09/12 00:52:19;;;;;;;;;;;;;;;;;;5027032;28;19918;-81
2021/09/12 00:54:45;;;;;;;;;;;;;;;;;;5018905;28;19965;-81
2021/09/12 00:57:11;;;;;;;;;;;;;;;;;;5010416;28;20323;-81
2021/09/12 00:59:37;;;;;;;;;;;;;;;;;;5010564;28;20295;-80
2021/09/12 01:02:03;;;;;;;;;;;;;;;;;;5012240;28;19925;-81
2021/09/12 01:04:28;;;;;;;;;;;;;;;;;;5010997;28;19921;-81
2021/09/12 01:06:54;;;;;;;;;;;;;;;;;;5010464;28;19961;-81
2021/09/12 01:09:19;;;;;;;;;;;;;;;;;;5026891;28;19924;-81
2021/09/12 01:11:44;;;;;;;;;;;;;;;;;;5010710;28;19921;-81
2021/09/12 01:14:10;;;;;;;;;;;;;;;;;;5009871;28;19929;-81
2021/09/12 01:16:35;;;;;;;;;;;;;;;;;;5022197;28;19918;-81
2021/09/12 01:19:00;;;;;;;;;;;;;;;;;;5009747;28;20454;-81
2021/09/12 01:21:26;;;;;;;;;;;;;;;;;;5010207;28;19914;-81
2021/09/12 01:23:51;;;;;;;;;;;;;;;;;;5010204;28;20300;-81
2021/09/12 01:26:21;;;;;;;;;;;;;;;;;;5010044;28;19914;-81
2021/09/12 01:28:46;;;;;;;;;;;;;;;;;;5009992;28;19913;-81
2021/09/12 01:31:19;;;;;;;;;;;;;;;;;;5019540;28;19948;-81
2021/09/12 01:33:44;;;;;;;;;;;;;;;;;;5029355;28;20411;-81
2021/09/12 01:36:09;;;;;;;;;;;;;;;;;;5029845;28;19917;-81
2021/09/12 01:38:35;;;;;;;;;;;;;;;;;;5046477;28;19983;-81
2021/09/12 01:41:00;;;;;;;;;;;;;;;;;;5017186;28;19968;-81
2021/09/12 01:43:26;;;;;;;;;;;;;;;;;;5029604;28;20352;-81
2021/09/12 01:45:51;;;;;;;;;;;;;;;;;;5029648;28;19914;-81
2021/09/12 01:48:16;;;;;;;;;;;;;;;;;;5029172;28;19913;-80
2021/09/12 01:50:41;;;;;;;;;;;;;;;;;;5029435;28;19918;-81
2021/09/12 01:53:07;;;;;;;;;;;;;;;;;;5013066;28;19920;-81
2021/09/12 01:55:32;;;;;;;;;;;;;;;;;;5021128;28;19923;-80
2021/09/12 01:57:57;;;;;;;;;;;;;;;;;;4999988;28;19918;-81
2021/09/12 02:00:23;;;;;;;;;;;;;;;;;;4980011;28;19921;-81
2021/09/12 02:02:48;;;;;;;;;;;;;;;;;;4996085;28;19924;-81
2021/09/12 02:05:13;;;;;;;;;;;;;;;;;;5028609;28;19917;-80
2021/09/12 02:07:39;;;;;;;;;;;;;;;;;;4978856;28;19924;-81
2021/09/12 02:10:04;;;;;;;;;;;;;;;;;;5027300;28;20407;-80
2021/09/12 02:12:29;;;;;;;;;;;;;;;;;;5043493;28;19956;-80
2021/09/12 02:14:55;;;;;;;;;;;;;;;;;;5028584;28;19917;-81
2021/09/12 02:17:22;;;;;;;;;;;;;;;;;;5024026;28;20375;-81
2021/09/12 02:19:48;;;;;;;;;;;;;;;;;;5028336;28;19921;-81
2021/09/12 02:22:13;;;;;;;;;;;;;;;;;;5028557;28;19913;-80
2021/09/12 02:24:38;;;;;;;;;;;;;;;;;;5028373;28;19917;-80
2021/09/12 02:27:04;;;;;;;;;;;;;;;;;;4992227;28;19972;-80
2021/09/12 02:29:29;;;;;;;;;;;;;;;;;;5009202;28;20391;-80
2021/09/12 02:31:54;;;;;;;;;;;;;;;;;;5008758;28;19917;-80
2021/09/12 02:34:20;;;;;;;;;;;;;;;;;;5008697;28;19928;-80
2021/09/12 02:36:45;;;;;;;;;;;;;;;;;;5010069;28;19917;-80
2021/09/12 02:39:11;;;;;;;;;;;;;;;;;;4995773;28;20291;-80
2021/09/12 02:41:36;;;;;;;;;;;;;;;;;;4979070;28;19917;-81
2021/09/12 02:44:01;;;;;;;;;;;;;;;;;;4979181;28;19944;-81
2021/09/12 02:46:27;;;;;;;;;;;;;;;;;;5011668;28;19956;-81
2021/09/12 02:48:52;;;;;;;;;;;;;;;;;;4995241;28;19921;-81
2021/09/12 02:51:18;;;;;;;;;;;;;;;;;;5028000;28;20396;-81
2021/09/12 02:53:43;;;;;;;;;;;;;;;;;;5028565;28;19913;-81
2021/09/12 02:56:08;;;;;;;;;;;;;;;;;;4994738;28;19917;-81
2021/09/12 02:58:34;;;;;;;;;;;;;;;;;;5011657;28;19925;-81
2021/09/12 03:00:59;;;;;;;;;;;;;;;;;;5010136;28;19918;-80
2021/09/12 03:03:24;;;;;;;;;;;;;;;;;;4994961;28;20008;-81
2021/09/12 03:05:50;;;;;;;;;;;;;;;;;;4994995;28;19917;-80
2021/09/12 03:08:15;;;;;;;;;;;;;;;;;;4979412;28;19917;-81
2021/09/12 03:10:40;;;;;;;;;;;;;;;;;;4978845;28;19917;-81
2021/09/12 03:13:06;;;;;;;;;;;;;;;;;;5026054;28;19913;-81
2021/09/12 03:15:31;;;;;;;;;;;;;;;;;;5027612;28;19918;-81
2021/09/12 03:17:56;;;;;;;;;;;;;;;;;;4978701;28;19921;-80
2021/09/12 03:20:22;;;;;;;;;;;;;;;;;;5027828;28;19997;-81
2021/09/12 03:22:47;;;;;;;;;;;;;;;;;;5027437;28;20621;-80
2021/09/12 03:25:12;;;;;;;;;;;;;;;;;;5027197;28;19921;-80
2021/09/12 03:27:38;;;;;;;;;;;;;;;;;;5027419;28;19917;-81
2021/09/12 03:30:03;;;;;;;;;;;;;;;;;;5027809;28;19921;-79
2021/09/12 03:32:29;;;;;;;;;;;;;;;;;;5023825;28;19922;-81
2021/09/12 03:34:54;;;;;;;;;;;;;;;;;;5025181;28;20343;-81
2021/09/12 03:37:19;;;;;;;;;;;;;;;;;;5007755;28;19924;-81
2021/09/12 03:39:45;;;;;;;;;;;;;;;;;;5020683;28;20007;-81
2021/09/12 03:42:10;;;;;;;;;;;;;;;;;;4978183;28;19964;-81
2021/09/12 03:44:35;;;;;;;;;;;;;;;;;;4994617;28;19917;-81
2021/09/12 03:47:01;;;;;;;;;;;;;;;;;;4994746;28;19914;-82
2021/09/12 03:49:27;;;;;;;;;;;;;;;;;;4994557;28;19917;-81
2021/09/12 03:51:52;;;;;;;;;;;;;;;;;;5015855;28;19921;-81
2021/09/12 03:54:17;;;;;;;;;;;;;;;;;;5010823;28;19922;-82
2021/09/12 03:56:43;;;;;;;;;;;;;;;;;;5023792;28;19951;-81
2021/09/12 03:59:08;;;;;;;;;;;;;;;;;;5027360;28;19968;-81
2021/09/12 04:01:33;;;;;;;;;;;;;;;;;;5023728;28;20016;-82
2021/09/12 04:03:59;;;;;;;;;;;;;;;;;;4991054;28;19953;-81
2021/09/12 04:06:24;;;;;;;;;;;;;;;;;;5007408;28;19913;-81
2021/09/12 04:08:49;;;;;;;;;;;;;;;;;;5010401;28;19929;-81
2021/09/12 04:11:15;;;;;;;;;;;;;;;;;;4977707;28;19913;-81
2021/09/12 04:13:40;;;;;;;;;;;;;;;;;;4978218;28;20395;-81
2021/09/12 04:16:05;;;;;;;;;;;;;;;;;;5027355;28;19917;-81
2021/09/12 04:18:31;;;;;;;;;;;;;;;;;;5001698;28;19917;-81
2021/09/12 04:20:56;;;;;;;;;;;;;;;;;;4978096;28;20015;-81
2021/09/12 04:23:22;;;;;;;;;;;;;;;;;;4978098;28;20044;-81
2021/09/12 04:25:47;;;;;;;;;;;;;;;;;;4977571;28;19920;-81
2021/09/12 04:28:12;;;;;;;;;;;;;;;;;;4994593;28;20008;-81
2021/09/12 04:30:38;;;;;;;;;;;;;;;;;;5010496;28;20407;-81
2021/09/12 04:33:03;;;;;;;;;;;;;;;;;;5010999;28;19936;-81
2021/09/12 04:35:28;;;;;;;;;;;;;;;;;;5024444;28;19921;-81
2021/09/12 04:37:53;;;;;;;;;;;;;;;;;;5030975;28;19913;-81
2021/09/12 04:40:19;;;;;;;;;;;;;;;;;;5004987;28;20016;-81
2021/09/12 04:42:44;;;;;;;;;;;;;;;;;;5011374;28;19914;-81
2021/09/12 04:45:10;;;;;;;;;;;;;;;;;;4981686;28;19960;-81
2021/09/12 04:47:35;;;;;;;;;;;;;;;;;;4981461;28;19913;-82
2021/09/12 04:50:00;;;;;;;;;;;;;;;;;;4997326;28;19921;-81
2021/09/12 04:52:27;;;;;;;;;;;;;;;;;;4981469;28;20302;-81
2021/09/12 04:54:52;;;;;;;;;;;;;;;;;;4980597;28;19917;-81
2021/09/12 04:57:17;;;;;;;;;;;;;;;;;;4997904;28;19918;-81
2021/09/12 04:59:43;;;;;;;;;;;;;;;;;;4994011;28;20067;-81
2021/09/12 05:02:08;;;;;;;;;;;;;;;;;;5023469;28;19925;-81
2021/09/12 05:04:34;;;;;;;;;;;;;;;;;;5013449;28;20425;-80
2021/09/12 05:06:59;;;;;;;;;;;;;;;;;;5030104;28;19925;-80
2021/09/12 05:09:25;;;;;;;;;;;;;;;;;;5021619;28;19917;-80
2021/09/12 05:11:50;;;;;;;;;;;;;;;;;;5012883;28;19921;-80
2021/09/12 05:14:16;;;;;;;;;;;;;;;;;;5026935;28;20391;-81
2021/09/12 05:16:41;;;;;;;;;;;;;;;;;;5028669;28;19914;-81
2021/09/12 05:19:06;;;;;;;;;;;;;;;;;;5021340;28;19967;-82
2021/09/12 05:21:31;;;;;;;;;;;;;;;;;;5021111;28;19917;-82
2021/09/12 05:23:57;;;;;;;;;;;;;;;;;;5025461;28;20012;-83
2021/09/12 05:26:22;;;;;;;;;;;;;;;;;;5029700;28;19979;-82
2021/09/12 05:28:48;;;;;;;;;;;;;;;;;;4997313;28;19970;-81
2021/09/12 05:31:13;;;;;;;;;;;;;;;;;;5013382;28;19918;-81
2021/09/12 05:33:38;;;;;;;;;;;;;;;;;;4980835;28;19926;-81
2021/09/12 05:36:04;;;;;;;;;;;;;;;;;;4980810;28;19913;-81
2021/09/12 05:38:29;;;;;;;;;;;;;;;;;;4996608;28;20011;-81
2021/09/12 05:40:54;;;;;;;;;;;;;;;;;;5029586;28;20268;-81
2021/09/12 05:43:20;;;;;;;;;;;;;;;;;;5029639;28;19913;-82
2021/09/12 05:45:45;;;;;;;;;;;;;;;;;;5035994;28;19948;-84
2021/09/12 05:48:14;;;;;;;;;;;;;;;;;;5033042;28;19939;-83
2021/09/12 05:50:39;;;;;;;;;;;;;;;;;;5032804;28;20007;-81
2021/09/12 05:53:06;;;;;;;;;;;;;;;;;;5032376;28;20035;-82
2021/09/12 05:55:32;;;;;;;;;;;;;;;;;;5016283;28;19913;-82
2021/09/12 05:57:57;;;;;;;;;;;;;;;;;;5013143;28;19913;-82
2021/09/12 06:00:22;;;;;;;;;;;;;;;;;;4980226;28;19917;-82
2021/09/12 06:02:48;;;;;;;;;;;;;;;;;;5011333;28;19925;-82
2021/09/12 06:05:14;;;;;;;;;;;;;;;;;;5028692;28;19975;-81
2021/09/12 06:07:40;;;;;;;;;;;;;;;;;;4996211;28;19956;-82
2021/09/12 06:10:05;;;;;;;;;;;;;;;;;;5028498;28;20347;-82
2021/09/12 06:12:31;;;;;;;;;;;;;;;;;;4993412;28;20009;-82
2021/09/12 06:14:56;;;;;;;;;;;;;;;;;;5017599;28;19913;-82
2021/09/12 06:17:22;;;;;;;;;;;;;;;;;;5030307;28;19917;-82
2021/09/12 06:19:48;;;;;;;;;;;;;;;;;;4994193;28;19924;-82
2021/09/12 06:22:14;;;;;;;;;;;;;;;;;;4992100;28;19931;-83
2021/09/12 06:24:39;;;;;;;;;;;;;;;;;;5027539;28;19913;-81
2021/09/12 06:27:04;;;;;;;;;;;;;;;;;;4978776;28;20015;-81
2021/09/12 06:29:30;;;;;;;;;;;;;;;;;;4995391;28;19925;-81
2021/09/12 06:31:55;;;;;;;;;;;;;;;;;;5026082;28;19917;-81
2021/09/12 06:34:20;;;;;;;;;;;;;;;;;;5009165;28;19926;-80
2021/09/12 06:36:45;;;;;;;;;;;;;;;;;;5008760;28;20384;-80
2021/09/12 06:39:11;;;;;;;;;;;;;;;;;;5008795;28;19914;-86
2021/09/12 06:41:37;;;;;;;;;;;;;;;;;;5009129;28;19913;-86
2021/09/12 06:44:03;;;;;;;;;;;;;;;;;;5009637;28;20454;-88
2021/09/12 06:46:30;;;;;;;;;;;;;;;;;;5009612;28;19947;-87
2021/09/12 06:48:56;;;;;;;;;;;;;;;;;;4992077;28;19914;-82
2021/09/12 06:51:21;;;;;;;;;;;;;;;;;;5011072;28;19924;-84
2021/09/12 06:53:46;;;;;;;;;;;;;;;;;;5027737;28;19968;-81
2021/09/12 06:56:11;;;;;;;;;;;;;;;;;;4995360;28;20016;-80
2021/09/12 06:58:37;;;;;;;;;;;;;;;;;;5011459;28;19920;-80
2021/09/12 07:01:02;;;;;;;;;;;;;;;;;;4994378;28;20011;-81
2021/09/12 07:03:28;;;;;;;;;;;;;;;;;;5011428;28;19921;-81
2021/09/12 07:05:53;;;;;;;;;;;;;;;;;;5027986;28;19917;-81
2021/09/12 07:08:18;;;;;;;;;;;;;;;;;;5027744;28;19917;-81
2021/09/12 07:10:44;;;;;;;;;;;;;;;;;;5027643;28;19964;-81
2021/09/12 07:13:10;;;;;;;;;;;;;;;;;;5028447;28;19917;-80
2021/09/12 07:15:35;;;;;;;;;;;;;;;;;;5028051;28;19951;-81
2021/09/12 07:18:00;;;;;;;;;;;;;;;;;;5027721;28;19917;-80
2021/09/12 07:20:26;;;;;;;;;;;;;;;;;;5011104;28;19918;-80
2021/09/12 07:22:51;;;;;;;;;;;;;;;;;;5011381;28;19935;-82
2021/09/12 07:25:16;;;;;;;;;;;;;;;;;;5011302;28;19917;-80
2021/09/12 07:27:42;;;;;;;;;;;;;;;;;;5011258;28;20280;-80
2021/09/12 07:30:08;;;;;;;;;;;;;;;;;;5027676;28;19928;-80
2021/09/12 07:32:34;;;;;;;;;;;;;;;;;;5027690;28;19921;-80
2021/09/12 07:34:59;;;;;;;;;;;;;;;;;;5010813;28;20380;-80
2021/09/12 07:37:24;;;;;;;;;;;;;;;;;;5011101;28;19914;-80
2021/09/12 07:39:51;;;;;;;;;;;;;;;;;;5027537;28;19941;-80
2021/09/12 07:42:16;;;;;;;;;;;;;;;;;;5044370;28;19956;-80
2021/09/12 07:44:41;;;;;;;;;;;;;;;;;;5027754;28;19913;-80
2021/09/12 07:47:07;;;;;;;;;;;;;;;;;;5011176;28;19913;-80
2021/09/12 07:49:32;;;;;;;;;;;;;;;;;;5010692;28;19913;-85
2021/09/12 07:51:57;;;;;;;;;;;;;;;;;;5027669;28;19914;-85
2021/09/12 07:54:22;;;;;;;;;;;;;;;;;;5007369;28;19972;-84
2021/09/12 07:56:48;;;;;;;;;;;;;;;;;;4978477;28;19921;-84
2021/09/12 07:59:14;;;;;;;;;;;;;;;;;;4978558;28;19917;-84
2021/09/12 08:01:39;;;;;;;;;;;;;;;;;;4978609;28;19917;-84
2021/09/12 08:04:05;;;;;;;;;;;;;;;;;;5011163;28;19917;-84
2021/09/12 08:06:31;;;;;;;;;;;;;;;;;;5014923;28;19967;-84
2021/09/12 08:08:56;;;;;;;;;;;;;;;;;;5014665;28;19963;-84
2021/09/12 08:11:23;;;;;;;;;;;;;;;;;;5015196;28;19992;-85
2021/09/12 08:13:48;;;;;;;;;;;;;;;;;;5015011;28;19997;-85
2021/09/12 08:16:15;;;;;;;;;;;;;;;;;;5015262;28;19918;-85
2021/09/12 08:18:41;;;;;;;;;;;;;;;;;;5031134;28;19940;-85
2021/09/12 08:21:07;;;;;;;;;;;;;;;;;;5031435;28;20372;-84
2021/09/12 08:23:34;;;;;;;;;;;;;;;;;;5031467;28;19913;-85
2021/09/12 08:25:59;;;;;;;;;;;;;;;;;;5031742;28;19953;-85
2021/09/12 08:28:25;;;;;;;;;;;;;;;;;;5031160;28;19991;-85
2021/09/12 08:30:51;;;;;;;;;;;;;;;;;;5031033;28;19921;-84
2021/09/12 08:33:17;;;;;;;;;;;;;;;;;;5030489;28;19967;-86
2021/09/12 08:35:43;;;;;;;;;;;;;;;;;;5031163;28;19920;-85
2021/09/12 08:38:09;;;;;;;;;;;;;;;;;;5031349;28;19917;-85
2021/09/12 08:40:36;;;;;;;;;;;;;;;;;;5048046;28;19920;-85
2021/09/12 08:43:02;;;;;;;;;;;;;;;;;;5031423;28;19956;-85
2021/09/12 08:45:27;;;;;;;;;;;;;;;;;;5030977;28;19924;-84
2021/09/12 08:47:54;;;;;;;;;;;;;;;;;;5030539;28;19917;-85
2021/09/12 08:50:19;;;;;;;;;;;;;;;;;;5030217;28;19914;-85
2021/09/12 08:52:46;;;;;;;;;;;;;;;;;;5014113;28;20288;-84
2021/09/12 08:55:11;;;;;;;;;;;;;;;;;;5014165;28;19917;-85
2021/09/12 08:57:46;;;;;;;;;;;;;;;;;;4981705;28;19920;-84
2021/09/12 09:00:15;;;;;;;;;;;;;;;;;;5013894;28;19917;-84
2021/09/12 09:02:40;;;;;;;;;;;;;;;;;;4996114;28;20399;-84
2021/09/12 09:05:06;;;;;;;;;;;;;;;;;;5013625;28;19920;-84
2021/09/12 09:07:32;;;;;;;;;;;;;;;;;;5013944;28;19936;-85
2021/09/12 09:09:59;;;;;;;;;;;;;;;;;;5014443;28;19920;-84
2021/09/12 09:12:25;;;;;;;;;;;;;;;;;;5013975;28;20307;-84
2021/09/12 09:15:22;;;;;;;;;;;;;;;;;;5013409;28;19924;-84
2021/09/12 09:17:48;;;;;;;;;;;;;;;;;;5018719;28;19923;-85
2021/09/12 09:20:15;;;;;;;;;;;;;;;;;;5029521;28;20441;-84
2021/09/12 09:22:41;;;;;;;;;;;;;;;;;;5026677;28;20127;-84
2021/09/12 09:25:08;;;;;;;;;;;;;;;;;;5010243;28;20355;-84
2021/09/12 09:27:54;;;;;;;;;;;;;;;;;;5010428;28;19965;-84
2021/09/12 09:30:19;;;;;;;;;;;;;;;;;;4996524;28;19980;-84
2021/09/12 09:32:44;;;;;;;;;;;;;;;;;;5010034;28;19956;-84
2021/09/12 09:35:19;;;;;;;;;;;;;;;;;;5010139;28;19918;-84
2021/09/12 09:37:47;;;;;;;;;;;;;;;;;;5010049;28;20016;-84
2021/09/12 09:40:13;;;;;;;;;;;;;;;;;;5010175;28;20000;-85
2021/09/12 09:42:42;;;;;;;;;;;;;;;;;;5010188;28;20017;-84
2021/09/12 09:45:13;;;;;;;;;;;;;;;;;;5009898;28;19917;-85
2021/09/12 09:47:39;;;;;;;;;;;;;;;;;;5043192;28;19917;-84
2021/09/12 09:50:05;;;;;;;;;;;;;;;;;;5009732;28;19914;-84
2021/09/12 09:52:32;;;;;;;;;;;;;;;;;;5026395;28;19918;-85
2021/09/12 09:54:57;;;;;;;;;;;;;;;;;;5020342;28;19917;-84
2021/09/12 09:57:23;;;;;;;;;;;;;;;;;;5029479;28;19913;-85
2021/09/12 09:59:48;;;;;;;;;;;;;;;;;;5029499;28;19917;-85
2021/09/12 10:02:14;;;;;;;;;;;;;;;;;;5029009;28;20355;-84
2021/09/12 10:04:39;;;;;;;;;;;;;;;;;;5012917;28;20000;-83
2021/09/12 10:07:04;;;;;;;;;;;;;;;;;;5012281;28;19950;-82
2021/09/12 10:09:30;;;;;;;;;;;;;;;;;;5012532;28;19928;-83
2021/09/12 10:11:56;;;;;;;;;;;;;;;;;;4996417;28;19914;-83
2021/09/12 10:14:28;;;;;;;;;;;;;;;;;;4996159;28;19924;-83
2021/09/12 10:16:53;;;;;;;;;;;;;;;;;;5029026;28;20379;-83
2021/09/12 10:19:32;;;;;;;;;;;;;;;;;;4996314;28;19922;-83
2021/09/12 10:21:58;;;;;;;;;;;;;;;;;;4996355;28;19913;-83
2021/09/12 10:24:23;;;;;;;;;;;;;;;;;;5012341;28;19914;-83
2021/09/12 10:26:49;;;;;;;;;;;;;;;;;;5011894;28;20008;-83
2021/09/12 10:29:32;;;;;;;;;;;;;;;;;;5012433;28;19956;-83
2021/09/12 10:31:59;;;;;;;;;;;;;;;;;;5012419;28;19921;-83
2021/09/12 10:34:24;;;;;;;;;;;;;;;;;;4995705;28;19951;-84
2021/09/12 10:36:50;;;;;;;;;;;;;;;;;;5012056;28;19913;-84
2021/09/12 10:39:25;;;;;;;;;;;;;;;;;;5011894;28;20338;-83
2021/09/12 10:42:09;;;;;;;;;;;;;;;;;;5012232;28;19924;-83
2021/09/12 10:44:35;;;;;;;;;;;;;;;;;;5011862;28;19964;-83
2021/09/12 10:47:06;;;;;;;;;;;;;;;;;;4995706;28;19944;-81
2021/09/12 10:49:32;;;;;;;;;;;;;;;;;;5011979;28;20346;-83
2021/09/12 10:51:57;;;;;;;;;;;;;;;;;;4995697;28;19955;-83
2021/09/12 10:54:22;;;;;;;;;;;;;;;;;;5011678;28;19913;-83
2021/09/12 10:56:48;;;;;;;;;;;;;;;;;;4995870;28;19980;-83
2021/09/12 10:59:13;;;;;;;;;;;;;;;;;;4978970;28;19957;-83
2021/09/12 11:01:41;;;;;;;;;;;;;;;;;;4979426;28;20011;-83
2021/09/12 11:04:07;;;;;;;;;;;;;;;;;;5011434;28;20402;-83
2021/09/12 11:06:36;;;;;;;;;;;;;;;;;;5018083;28;19913;-83
2021/09/12 11:09:03;;;;;;;;;;;;;;;;;;5014898;28;19913;-83
2021/09/12 11:11:28;;;;;;;;;;;;;;;;;;5014723;28;19967;-83
2021/09/12 11:13:54;;;;;;;;;;;;;;;;;;4998543;28;20337;-83
2021/09/12 11:16:21;;;;;;;;;;;;;;;;;;4983105;28;19913;-83
2021/09/12 11:18:48;;;;;;;;;;;;;;;;;;5027449;28;20391;-83
2021/09/12 11:21:32;;;;;;;;;;;;;;;;;;5044248;28;19925;-83
2021/09/12 11:23:57;;;;;;;;;;;;;;;;;;5044362;28;19914;-83
2021/09/12 11:26:22;;;;;;;;;;;;;;;;;;5044479;28;19959;-83
2021/09/12 11:28:58;;;;;;;;;;;;;;;;;;5027845;28;19989;-82
2021/09/12 11:31:29;;;;;;;;;;;;;;;;;;5028017;28;19953;-83
2021/09/12 11:33:55;;;;;;;;;;;;;;;;;;5027555;28;19918;-83
2021/09/12 11:36:21;;;;;;;;;;;;;;;;;;5027588;28;19987;-83
2021/09/12 11:38:56;;;;;;;;;;;;;;;;;;5027293;28;19914;-83
2021/09/12 11:41:23;;;;;;;;;;;;;;;;;;5027342;28;20384;-83
2021/09/12 11:43:55;;;;;;;;;;;;;;;;;;5027437;28;20648;-84
2021/09/12 11:46:21;;;;;;;;;;;;;;;;;;5027982;28;19967;-83
2021/09/12 11:48:53;;;;;;;;;;;;;;;;;;5027502;28;20364;-82
2021/09/12 11:51:34;;;;;;;;;;;;;;;;;;5027466;28;20364;-83
2021/09/12 11:54:22;;;;;;;;;;;;;;;;;;5027233;28;19924;-83
2021/09/12 11:56:57;;;;;;;;;;;;;;;;;;4988733;28;19913;-83
2021/09/12 11:59:23;;;;;;;;;;;;;;;;;;5011295;28;20587;-83
2021/09/12 12:01:52;;;;;;;;;;;;;;;;;;5027509;28;19917;-83
2021/09/12 12:04:17;;;;;;;;;;;;;;;;;;5010754;28;19944;-83
2021/09/12 12:06:46;;;;;;;;;;;;;;;;;;5002936;28;20316;-83
2021/09/12 12:09:13;;;;;;;;;;;;;;;;;;5024206;28;19993;-83
2021/09/12 12:11:41;;;;;;;;;;;;;;;;;;5007302;28;19917;-83
2021/09/12 12:14:09;;;;;;;;;;;;;;;;;;5007641;28;19914;-83
2021/09/12 12:16:38;;;;;;;;;;;;;;;;;;5024757;28;19917;-83
2021/09/12 12:19:04;;;;;;;;;;;;;;;;;;5027040;28;19913;-83
2021/09/12 12:21:30;;;;;;;;;;;;;;;;;;5027169;28;20020;-83
2021/09/12 12:23:56;;;;;;;;;;;;;;;;;;5027303;28;19937;-83
2021/09/12 12:26:23;;;;;;;;;;;;;;;;;;5026914;28;20367;-83
2021/09/12 12:28:57;;;;;;;;;;;;;;;;;;5027183;28;19959;-83
2021/09/12 12:31:23;;;;;;;;;;;;;;;;;;5027043;28;20000;-83
2021/09/12 12:33:48;;;;;;;;;;;;;;;;;;5027078;28;20004;-83
2021/09/12 12:36:17;;;;;;;;;;;;;;;;;;5027048;28;19917;-83
2021/09/12 12:38:44;;;;;;;;;;;;;;;;;;5026533;28;20453;-83
2021/09/12 12:41:10;;;;;;;;;;;;;;;;;;5027420;28;20011;-83
2021/09/12 12:43:35;;;;;;;;;;;;;;;;;;5027024;28;19914;-83
2021/09/12 12:46:02;;;;;;;;;;;;;;;;;;5027348;28;19917;-83
2021/09/12 12:48:28;;;;;;;;;;;;;;;;;;5026990;28;19985;-83
2021/09/12 12:50:54;;;;;;;;;;;;;;;;;;5028769;28;19925;-83
2021/09/12 12:53:45;;;;;;;;;;;;;;;;;;5030162;28;19915;-83
2021/09/12 12:56:14;;;;;;;;;;;;;;;;;;5009554;28;20300;-83
2021/09/12 12:58:40;;;;;;;;;;;;;;;;;;5010376;28;19921;-82
2021/09/12 13:01:06;;;;;;;;;;;;;;;;;;5031845;28;19924;-83
2021/09/12 13:03:31;;;;;;;;;;;;;;;;;;4997559;28;20387;-83
2021/09/12 13:06:00;;;;;;;;;;;;;;;;;;5015361;28;19913;-82
2021/09/12 13:08:26;;;;;;;;;;;;;;;;;;5033254;28;19913;-83
2021/09/12 13:10:51;;;;;;;;;;;;;;;;;;5000764;28;19913;-83
2021/09/12 13:13:17;;;;;;;;;;;;;;;;;;5017299;28;19920;-83
2021/09/12 13:15:42;;;;;;;;;;;;;;;;;;4990510;28;19913;-83
2021/09/12 13:18:07;;;;;;;;;;;;;;;;;;5030331;28;19913;-83
2021/09/12 13:20:33;;;;;;;;;;;;;;;;;;5029954;28;19921;-82
2021/09/12 13:22:59;;;;;;;;;;;;;;;;;;5029994;28;19918;-82
2021/09/12 13:25:24;;;;;;;;;;;;;;;;;;5030030;28;20400;-83
2021/09/12 13:27:50;;;;;;;;;;;;;;;;;;5030138;28;19921;-82
2021/09/12 13:30:16;;;;;;;;;;;;;;;;;;5029580;28;19917;-83
2021/09/12 13:32:41;;;;;;;;;;;;;;;;;;5029849;28;19921;-82
2021/09/12 13:35:07;;;;;;;;;;;;;;;;;;5046402;28;20295;-83
2021/09/12 13:37:32;;;;;;;;;;;;;;;;;;5012737;28;20028;-83
2021/09/12 13:39:57;;;;;;;;;;;;;;;;;;5029573;28;20374;-83
2021/09/12 13:42:22;;;;;;;;;;;;;;;;;;5030045;28;19928;-82
2021/09/12 13:44:48;;;;;;;;;;;;;;;;;;5029466;28;20589;-82
2021/09/12 13:47:13;;;;;;;;;;;;;;;;;;5046301;28;19971;-83
2021/09/12 13:49:39;;;;;;;;;;;;;;;;;;5029649;28;19917;-83
2021/09/12 13:52:04;;;;;;;;;;;;;;;;;;5029368;28;19917;-83
2021/09/12 13:54:30;;;;;;;;;;;;;;;;;;5009855;28;20008;-83
2021/09/12 13:56:56;;;;;;;;;;;;;;;;;;4977137;28;19913;-82
2021/09/12 13:59:21;;;;;;;;;;;;;;;;;;4993739;28;19966;-83
2021/09/12 14:01:47;;;;;;;;;;;;;;;;;;5018288;28;19917;-82
2021/09/12 14:04:12;;;;;;;;;;;;;;;;;;4995996;28;19917;-81
2021/09/12 14:06:37;;;;;;;;;;;;;;;;;;5005124;28;19917;-82
2021/09/12 14:09:04;;;;;;;;;;;;;;;;;;5009330;28;20019;-82
2021/09/12 14:11:30;;;;;;;;;;;;;;;;;;5025872;28;19925;-81
2021/09/12 14:13:55;;;;;;;;;;;;;;;;;;5025718;28;20312;-82
2021/09/12 14:16:20;;;;;;;;;;;;;;;;;;5041624;28;19918;-81
2021/09/12 14:18:46;;;;;;;;;;;;;;;;;;5029139;28;19913;-81
2021/09/12 14:21:13;;;;;;;;;;;;;;;;;;5028651;28;19948;-81
2021/09/12 14:23:38;;;;;;;;;;;;;;;;;;5028530;28;19914;-81
2021/09/12 14:26:04;;;;;;;;;;;;;;;;;;5028717;28;20012;-81
2021/09/12 14:28:29;;;;;;;;;;;;;;;;;;5029059;28;20008;-83
2021/09/12 14:30:54;;;;;;;;;;;;;;;;;;5028726;28;19963;-82
2021/09/12 14:33:20;;;;;;;;;;;;;;;;;;5028483;28;20384;-83
2021/09/12 14:35:45;;;;;;;;;;;;;;;;;;5028348;28;19913;-82
2021/09/12 14:38:11;;;;;;;;;;;;;;;;;;5028271;28;20012;-82
2021/09/12 14:40:36;;;;;;;;;;;;;;;;;;5029069;28;19917;-82
2021/09/12 14:43:02;;;;;;;;;;;;;;;;;;5028735;28;19924;-82
2021/09/12 14:45:27;;;;;;;;;;;;;;;;;;5044992;28;19979;-82
2021/09/12 14:47:53;;;;;;;;;;;;;;;;;;5028433;28;19913;-82
2021/09/12 14:50:18;;;;;;;;;;;;;;;;;;5028283;28;19913;-83
2021/09/12 14:52:44;;;;;;;;;;;;;;;;;;5028492;28;19917;-81
2021/09/12 14:55:09;;;;;;;;;;;;;;;;;;5028276;28;20386;-82
2021/09/12 14:57:35;;;;;;;;;;;;;;;;;;5028152;28;19960;-82
2021/09/12 15:00:00;;;;;;;;;;;;;;;;;;5028361;28;19918;-83
2021/09/12 15:02:25;;;;;;;;;;;;;;;;;;5028321;28;19917;-82
2021/09/12 15:04:51;;;;;;;;;;;;;;;;;;5011427;28;19921;-82
2021/09/12 15:07:16;;;;;;;;;;;;;;;;;;4998577;28;20431;-82
2021/09/12 15:09:41;;;;;;;;;;;;;;;;;;5008581;28;19914;-82
2021/09/12 15:12:07;;;;;;;;;;;;;;;;;;5008709;28;19918;-83
2021/09/12 15:14:32;;;;;;;;;;;;;;;;;;5008985;28;19921;-83
2021/09/12 15:16:57;;;;;;;;;;;;;;;;;;5027917;28;20308;-82
2021/09/12 15:19:23;;;;;;;;;;;;;;;;;;5044157;28;19952;-82
2021/09/12 15:21:48;;;;;;;;;;;;;;;;;;5027879;28;20281;-83
2021/09/12 15:24:13;;;;;;;;;;;;;;;;;;5027847;28;19917;-83
2021/09/12 15:26:39;;;;;;;;;;;;;;;;;;5027909;28;20360;-82
2021/09/12 15:29:04;;;;;;;;;;;;;;;;;;5027961;28;19917;-82
2021/09/12 15:31:29;;;;;;;;;;;;;;;;;;5027762;28;19921;-83
2021/09/12 15:33:55;;;;;;;;;;;;;;;;;;5027098;28;19925;-82
2021/09/12 15:36:21;;;;;;;;;;;;;;;;;;5027608;28;19924;-83
2021/09/12 15:38:46;;;;;;;;;;;;;;;;;;5027778;28;19913;-82
2021/09/12 15:41:12;;;;;;;;;;;;;;;;;;5027903;28;19964;-83
2021/09/12 15:43:37;;;;;;;;;;;;;;;;;;5027961;28;19921;-83
2021/09/12 15:46:02;;;;;;;;;;;;;;;;;;5027842;28;19925;-82
2021/09/12 15:48:28;;;;;;;;;;;;;;;;;;5027916;28;19921;-82
2021/09/12 15:50:53;;;;;;;;;;;;;;;;;;5027592;28;19941;-83
2021/09/12 15:53:18;;;;;;;;;;;;;;;;;;5027653;28;19971;-83
2021/09/12 15:55:44;;;;;;;;;;;;;;;;;;5027642;28;20012;-82
2021/09/12 15:58:09;;;;;;;;;;;;;;;;;;5027443;28;19944;-82
2021/09/12 16:00:34;;;;;;;;;;;;;;;;;;5027190;28;19917;-82
2021/09/12 16:03:00;;;;;;;;;;;;;;;;;;5010225;28;20308;-82
2021/09/12 16:05:25;;;;;;;;;;;;;;;;;;4994498;28;19914;-82
2021/09/12 16:07:50;;;;;;;;;;;;;;;;;;5027959;28;20387;-83
2021/09/12 16:10:16;;;;;;;;;;;;;;;;;;5014340;28;20342;-83
2021/09/12 16:12:41;;;;;;;;;;;;;;;;;;5014412;28;20004;-82
2021/09/12 16:15:07;;;;;;;;;;;;;;;;;;5008638;28;19913;-83
2021/09/12 16:17:32;;;;;;;;;;;;;;;;;;5026971;28;19913;-82
2021/09/12 16:19:57;;;;;;;;;;;;;;;;;;5027153;28;19917;-82
2021/09/12 16:22:23;;;;;;;;;;;;;;;;;;5026876;28;19913;-82
2021/09/12 16:24:48;;;;;;;;;;;;;;;;;;5027132;28;19968;-82
2021/09/12 16:27:13;;;;;;;;;;;;;;;;;;5031001;28;19917;-82
2021/09/12 16:29:39;;;;;;;;;;;;;;;;;;5031159;28;20100;-82
2021/09/12 16:32:04;;;;;;;;;;;;;;;;;;5031028;28;19921;-82
2021/09/12 16:34:30;;;;;;;;;;;;;;;;;;5014240;28;19924;-83
2021/09/12 16:36:55;;;;;;;;;;;;;;;;;;5030530;28;19913;-82
2021/09/12 16:39:20;;;;;;;;;;;;;;;;;;5047898;28;19917;-83